createdAt,value
2019-01-28T00:02:14.826Z,67.82
2019-01-28T00:04:48.263Z,67.92
2019-01-28T00:07:21.702Z,67.86
2019-01-28T00:09:55.040Z,67.77
2019-01-28T00:12:28.506Z,67.91
2019-01-28T00:15:01.953Z,67.90
2019-01-28T00:17:36.826Z,67.82
2019-01-28T00:20:10.413Z,67.87
2019-01-28T00:22:43.860Z,67.79
2019-01-28T00:25:17.299Z,67.65
2019-01-28T00:27:50.767Z,67.65
2019-01-28T00:30:24.232Z,67.85
2019-01-28T00:32:57.572Z,67.85
2019-01-28T00:35:30.962Z,67.55
2019-01-28T00:38:04.584Z,67.62
2019-01-28T00:40:38.104Z,67.74
2019-01-28T00:43:11.450Z,67.72
2019-01-28T00:45:44.823Z,67.62
2019-01-28T00:48:18.288Z,67.63
2019-01-28T00:50:51.640Z,67.63
2019-01-28T00:53:24.996Z,67.60
2019-01-28T00:55:58.400Z,67.54
2019-01-28T00:58:31.759Z,67.46
2019-01-28T01:01:05.315Z,67.50
2019-01-28T01:03:38.801Z,67.08
2019-01-28T01:06:12.265Z,67.08
2019-01-28T01:08:45.709Z,67.57
2019-01-28T01:11:19.160Z,67.48
2019-01-28T01:13:52.521Z,67.52
2019-01-28T01:16:25.919Z,67.45
2019-01-28T01:18:59.398Z,67.49
2019-01-28T01:21:32.715Z,67.53
2019-01-28T01:24:06.206Z,67.32
2019-01-28T01:26:39.731Z,67.40
2019-01-28T01:29:13.096Z,67.63
2019-01-28T01:31:46.425Z,67.52
2019-01-28T01:34:19.855Z,67.52
2019-01-28T01:36:53.257Z,67.44
2019-01-28T01:39:26.714Z,67.59
2019-01-28T01:42:00.201Z,67.61
2019-01-28T01:44:33.571Z,67.53
2019-01-28T01:47:06.895Z,67.60
2019-01-28T01:49:40.352Z,67.65
2019-01-28T01:52:13.796Z,67.61
2019-01-28T01:54:47.182Z,67.62
2019-01-28T01:57:20.617Z,67.63
2019-01-28T01:59:53.932Z,67.66
2019-01-28T02:02:33.361Z,67.64
2019-01-28T02:05:02.453Z,67.75
2019-01-28T02:07:35.998Z,67.77
2019-01-28T02:10:11.953Z,67.83
2019-01-28T02:12:45.467Z,67.81
2019-01-28T02:15:19.253Z,67.71
2019-01-28T02:17:52.630Z,67.66
2019-01-28T02:20:26.044Z,67.57
2019-01-28T02:22:59.548Z,67.66
2019-01-28T02:25:32.870Z,67.60
2019-01-28T02:28:06.536Z,67.73
2019-01-28T02:30:39.943Z,67.63
2019-01-28T02:33:13.401Z,67.64
2019-01-28T02:35:46.888Z,67.52
2019-01-28T02:38:20.300Z,67.56
2019-01-28T02:40:53.831Z,67.60
2019-01-28T02:43:27.325Z,67.51
2019-01-28T02:46:00.690Z,67.67
2019-01-28T02:48:34.195Z,67.72
2019-01-28T02:51:07.739Z,67.80
2019-01-28T02:53:41.094Z,67.67
2019-01-28T02:56:14.680Z,67.72
2019-01-28T02:58:48.027Z,67.25
2019-01-28T03:01:21.412Z,67.64
2019-01-28T03:03:54.915Z,67.75
2019-01-28T03:06:28.321Z,67.77
2019-01-28T03:09:01.700Z,67.67
2019-01-28T03:11:35.018Z,67.69
2019-01-28T03:14:08.466Z,67.83
2019-01-28T03:16:41.905Z,67.79
2019-01-28T03:19:15.348Z,67.80
2019-01-28T03:21:48.746Z,67.55
2019-01-28T03:24:22.163Z,67.62
2019-01-28T03:26:55.555Z,67.69
2019-01-28T03:29:31.038Z,67.70
2019-01-28T03:32:04.506Z,67.81
2019-01-28T03:34:37.945Z,67.76
2019-01-28T03:37:11.596Z,67.77
2019-01-28T03:39:44.949Z,67.74
2019-01-28T03:42:18.441Z,67.82
2019-01-28T03:44:51.879Z,67.63
2019-01-28T03:47:25.347Z,67.62
2019-01-28T03:49:58.768Z,67.29
2019-01-28T03:52:32.156Z,67.37
2019-01-28T03:55:08.613Z,67.30
2019-01-28T03:57:42.187Z,67.05
2019-01-28T04:00:21.009Z,67.24
2019-01-28T04:02:54.428Z,67.16
2019-01-28T04:05:27.845Z,67.24
2019-01-28T04:08:01.161Z,67.48
2019-01-28T04:10:34.667Z,67.48
2019-01-28T04:13:08.164Z,67.54
2019-01-28T04:15:41.580Z,67.75
2019-01-28T04:18:15.021Z,67.50
2019-01-28T04:20:48.576Z,67.43
2019-01-28T04:23:22.030Z,67.52
2019-01-28T04:25:55.378Z,67.53
2019-01-28T04:28:28.793Z,67.35
2019-01-28T04:31:02.228Z,67.68
2019-01-28T04:33:35.629Z,67.66
2019-01-28T04:36:08.991Z,67.59
2019-01-28T04:38:42.311Z,67.89
2019-01-28T04:41:15.831Z,67.72
2019-01-28T04:43:49.149Z,67.64
2019-01-28T04:46:22.505Z,67.67
2019-01-28T04:48:55.822Z,67.78
2019-01-28T04:51:30.730Z,67.90
2019-01-28T04:54:04.459Z,67.85
2019-01-28T04:56:37.853Z,67.81
2019-01-28T04:59:11.342Z,67.65
2019-01-28T05:01:44.729Z,67.65
2019-01-28T05:04:18.078Z,67.73
2019-01-28T05:06:51.632Z,67.75
2019-01-28T05:09:25.059Z,67.90
2019-01-28T05:11:58.367Z,67.70
2019-01-28T05:14:31.775Z,67.77
2019-01-28T05:17:05.278Z,67.81
2019-01-28T05:19:38.732Z,67.78
2019-01-28T05:22:12.065Z,67.63
2019-01-28T05:24:45.435Z,67.78
2019-01-28T05:27:18.773Z,67.67
2019-01-28T05:29:52.255Z,67.57
2019-01-28T05:32:25.633Z,67.65
2019-01-28T05:34:58.982Z,67.58
2019-01-28T05:37:32.575Z,67.81
2019-01-28T05:40:09.239Z,67.70
2019-01-28T05:42:42.554Z,67.63
2019-01-28T05:45:17.718Z,67.73
2019-01-28T05:47:51.197Z,67.69
2019-01-28T05:50:24.675Z,67.67
2019-01-28T05:52:58.000Z,67.73
2019-01-28T05:55:31.416Z,67.53
2019-01-28T05:58:04.872Z,67.55
2019-01-28T06:00:40.064Z,67.43
2019-01-28T06:03:13.579Z,67.54
2019-01-28T06:05:46.994Z,67.48
2019-01-28T06:08:20.431Z,67.44
2019-01-28T06:10:53.811Z,67.32
2019-01-28T06:13:27.233Z,67.34
2019-01-28T06:16:00.712Z,67.25
2019-01-28T06:18:34.124Z,67.34
2019-01-28T06:21:07.594Z,67.29
2019-01-28T06:23:40.947Z,67.24
2019-01-28T06:26:14.369Z,67.36
2019-01-28T06:28:47.851Z,67.38
2019-01-28T06:31:21.262Z,67.26
2019-01-28T06:33:54.849Z,67.16
2019-01-28T06:36:28.228Z,67.25
2019-01-28T06:39:01.885Z,67.26
2019-01-28T06:41:35.256Z,67.15
2019-01-28T06:44:08.646Z,67.03
2019-01-28T06:46:42.089Z,67.08
2019-01-28T06:49:15.434Z,67.30
2019-01-28T06:51:48.920Z,67.23
2019-01-28T06:54:22.329Z,67.03
2019-01-28T06:56:55.768Z,67.10
2019-01-28T06:59:29.081Z,67.20
2019-01-28T07:02:02.451Z,67.13
2019-01-28T07:04:35.864Z,67.24
2019-01-28T07:07:09.235Z,67.12
2019-01-28T07:09:42.642Z,66.92
2019-01-28T07:12:16.055Z,67.04
2019-01-28T07:14:49.498Z,67.16
2019-01-28T07:17:22.882Z,66.97
2019-01-28T07:19:56.267Z,66.99
2019-01-28T07:22:29.799Z,67.01
2019-01-28T07:25:03.141Z,66.87
2019-01-28T07:27:36.787Z,66.86
2019-01-28T07:30:13.480Z,66.87
2019-01-28T07:32:46.894Z,66.90
2019-01-28T07:35:20.273Z,66.92
2019-01-28T07:37:53.693Z,66.87
2019-01-28T07:40:27.109Z,66.87
2019-01-28T07:43:00.487Z,66.80
2019-01-28T07:45:35.627Z,66.96
2019-01-28T07:48:09.133Z,67.00
2019-01-28T07:50:42.528Z,66.90
2019-01-28T07:53:16.039Z,66.77
2019-01-28T07:55:49.460Z,66.90
2019-01-28T07:58:22.881Z,66.77
2019-01-28T08:00:56.315Z,66.78
2019-01-28T08:03:29.704Z,66.80
2019-01-28T08:06:03.227Z,66.87
2019-01-28T08:08:36.636Z,66.91
2019-01-28T08:11:10.046Z,66.86
2019-01-28T08:13:43.476Z,66.76
2019-01-28T08:16:16.841Z,66.78
2019-01-28T08:18:50.185Z,66.69
2019-01-28T08:21:23.566Z,66.60
2019-01-28T08:23:56.925Z,66.69
2019-01-28T08:26:30.330Z,66.58
2019-01-28T08:29:03.928Z,66.47
2019-01-28T08:31:37.290Z,66.50
2019-01-28T08:34:10.757Z,66.36
2019-01-28T08:36:44.267Z,66.40
2019-01-28T08:39:17.659Z,66.25
2019-01-28T08:41:51.024Z,66.25
2019-01-28T08:44:24.382Z,66.24
2019-01-28T08:46:57.812Z,66.24
2019-01-28T08:49:31.194Z,66.36
2019-01-28T08:52:04.841Z,66.32
2019-01-28T08:54:38.152Z,66.32
2019-01-28T08:57:11.570Z,66.32
2019-01-28T08:59:44.914Z,66.11
2019-01-28T09:02:18.334Z,66.06
2019-01-28T09:04:51.735Z,65.91
2019-01-28T09:07:25.073Z,65.94
2019-01-28T09:09:58.384Z,65.85
2019-01-28T09:12:31.950Z,65.75
2019-01-28T09:15:08.772Z,65.57
2019-01-28T09:17:42.251Z,65.57
2019-01-28T09:20:18.062Z,65.75
2019-01-28T09:22:51.516Z,65.67
2019-01-28T09:25:24.928Z,65.82
2019-01-28T09:27:58.343Z,65.59
2019-01-28T09:30:33.857Z,65.61
2019-01-28T09:33:07.291Z,65.69
2019-01-28T09:35:40.740Z,65.69
2019-01-28T09:38:14.123Z,65.66
2019-01-28T09:40:47.567Z,65.66
2019-01-28T09:43:21.010Z,65.62
2019-01-28T09:45:54.396Z,65.67
2019-01-28T09:48:34.082Z,65.50
2019-01-28T09:51:02.865Z,65.60
2019-01-28T09:53:36.216Z,65.60
2019-01-28T09:56:09.596Z,65.63
2019-01-28T09:58:43.017Z,65.63
2019-01-28T10:01:16.663Z,65.57
2019-01-28T10:03:49.979Z,65.46
2019-01-28T10:06:23.424Z,65.64
2019-01-28T10:08:56.740Z,65.59
2019-01-28T10:11:30.238Z,65.43
2019-01-28T10:14:03.712Z,65.57
2019-01-28T10:16:37.116Z,65.41
2019-01-28T10:19:10.516Z,65.57
2019-01-28T10:21:43.848Z,65.45
2019-01-28T10:24:17.226Z,65.55
2019-01-28T10:26:50.637Z,65.71
2019-01-28T10:29:24.252Z,65.41
2019-01-28T10:31:57.729Z,65.39
2019-01-28T10:34:31.114Z,64.93
2019-01-28T10:37:04.734Z,65.06
2019-01-28T10:39:38.208Z,65.34
2019-01-28T10:42:11.696Z,65.14
2019-01-28T10:44:45.046Z,65.02
2019-01-28T10:47:18.399Z,65.26
2019-01-28T10:49:51.746Z,64.87
2019-01-28T10:52:25.114Z,64.76
2019-01-28T10:54:58.651Z,64.87
2019-01-28T10:57:32.197Z,64.87
2019-01-28T11:00:13.333Z,64.86
2019-01-28T11:02:47.031Z,64.62
2019-01-28T11:05:20.492Z,64.21
2019-01-28T11:07:54.121Z,64.10
2019-01-28T11:10:28.914Z,63.94
2019-01-28T11:13:02.511Z,64.49
2019-01-28T11:15:35.870Z,64.36
2019-01-28T11:18:12.657Z,64.50
2019-01-28T11:20:46.328Z,64.25
2019-01-28T11:23:19.823Z,64.06
2019-01-28T11:25:53.167Z,64.08
2019-01-28T11:28:26.719Z,64.23
2019-01-28T11:31:01.593Z,64.19
2019-01-28T11:33:39.420Z,64.50
2019-01-28T11:36:11.070Z,64.49
2019-01-28T11:38:44.549Z,64.20
2019-01-28T11:41:18.031Z,64.18
2019-01-28T11:43:51.512Z,64.29
2019-01-28T11:46:25.165Z,64.28
2019-01-28T11:49:05.713Z,64.46
2019-01-28T11:51:33.908Z,64.47
2019-01-28T11:54:07.349Z,64.57
2019-01-28T11:56:40.714Z,64.69
2019-01-28T11:59:15.172Z,64.55
2019-01-28T12:01:48.770Z,64.80
2019-01-28T12:04:22.162Z,64.56
2019-01-28T12:06:55.541Z,64.64
2019-01-28T12:09:28.964Z,64.63
2019-01-28T12:12:02.418Z,64.56
2019-01-28T12:14:35.938Z,64.63
2019-01-28T12:17:09.399Z,64.76
2019-01-28T12:19:42.859Z,64.34
2019-01-28T12:22:17.480Z,64.30
2019-01-28T12:24:50.944Z,64.19
2019-01-28T12:27:24.301Z,64.34
2019-01-28T12:29:57.782Z,64.26
2019-01-28T12:32:31.236Z,64.31
2019-01-28T12:35:06.626Z,64.51
2019-01-28T12:37:40.170Z,64.61
2019-01-28T12:40:18.636Z,64.61
2019-01-28T12:42:52.620Z,64.72
2019-01-28T12:45:28.003Z,64.81
2019-01-28T12:48:01.420Z,64.93
2019-01-28T12:50:34.899Z,64.90
2019-01-28T12:53:08.268Z,64.89
2019-01-28T12:55:41.641Z,65.02
2019-01-28T12:58:15.062Z,64.75
2019-01-28T13:00:52.870Z,64.94
2019-01-28T13:03:26.371Z,64.94
2019-01-28T13:05:59.713Z,64.87
2019-01-28T13:08:33.312Z,64.87
2019-01-28T13:11:06.776Z,64.90
2019-01-28T13:13:41.220Z,64.93
2019-01-28T13:16:14.884Z,65.01
2019-01-28T13:18:48.381Z,64.71
2019-01-28T13:21:21.898Z,64.75
2019-01-28T13:23:55.317Z,64.84
2019-01-28T13:26:28.798Z,64.84
2019-01-28T13:29:02.225Z,64.81
2019-01-28T13:31:35.695Z,65.02
2019-01-28T13:34:09.208Z,65.08
2019-01-28T13:36:42.670Z,64.88
2019-01-28T13:39:16.121Z,64.53
2019-01-28T13:41:49.581Z,64.63
2019-01-28T13:44:22.960Z,64.54
2019-01-28T13:46:56.352Z,64.62
2019-01-28T13:49:29.703Z,64.74
2019-01-28T13:52:03.261Z,64.75
2019-01-28T13:54:36.844Z,64.68
2019-01-28T13:57:10.488Z,64.61
2019-01-28T13:59:43.860Z,64.90
2019-01-28T14:02:17.316Z,65.13
2019-01-28T14:04:50.695Z,65.09
2019-01-28T14:07:24.132Z,65.08
2019-01-28T14:09:57.531Z,65.04
2019-01-28T14:12:30.974Z,65.13
2019-01-28T14:15:07.814Z,65.24
2019-01-28T14:17:41.213Z,65.28
2019-01-28T14:20:17.588Z,65.30
2019-01-28T14:22:51.076Z,65.41
2019-01-28T14:25:24.579Z,65.42
2019-01-28T14:27:58.041Z,65.40
2019-01-28T14:30:40.267Z,65.44
2019-01-28T14:33:13.670Z,65.53
2019-01-28T14:35:47.235Z,65.46
2019-01-28T14:38:20.658Z,65.53
2019-01-28T14:40:54.205Z,65.36
2019-01-28T14:43:27.639Z,65.49
2019-01-28T14:46:01.141Z,65.54
2019-01-28T14:48:34.561Z,65.61
2019-01-28T14:51:08.347Z,65.55
2019-01-28T14:53:41.877Z,65.54
2019-01-28T14:56:15.364Z,65.65
2019-01-28T14:58:48.684Z,65.62
2019-01-28T15:01:22.101Z,65.78
2019-01-28T15:03:55.565Z,65.74
2019-01-28T15:06:29.077Z,65.70
2019-01-28T15:09:02.739Z,65.65
2019-01-28T15:11:36.155Z,65.59
2019-01-28T15:14:09.612Z,65.83
2019-01-28T15:16:43.106Z,65.84
2019-01-28T15:19:16.637Z,65.80
2019-01-28T15:21:50.028Z,65.88
2019-01-28T15:24:23.359Z,65.76
2019-01-28T15:26:56.849Z,65.96
2019-01-28T15:29:30.192Z,65.96
2019-01-28T15:32:03.640Z,65.97
2019-01-28T15:34:36.954Z,66.00
2019-01-28T15:37:10.386Z,66.02
2019-01-28T15:39:43.773Z,66.08
2019-01-28T15:42:17.112Z,66.05
2019-01-28T15:44:50.426Z,65.98
2019-01-28T15:47:23.758Z,66.02
2019-01-28T15:49:57.156Z,66.02
2019-01-28T15:52:30.473Z,66.20
2019-01-28T15:55:05.321Z,66.23
2019-01-28T15:57:38.725Z,66.18
2019-01-28T16:00:17.938Z,66.15
2019-01-28T16:02:51.526Z,66.09
2019-01-28T16:05:24.907Z,66.33
2019-01-28T16:07:58.281Z,66.42
2019-01-28T16:10:31.628Z,66.30
2019-01-28T16:13:05.393Z,66.40
2019-01-28T16:19:42.591Z,66.22
2019-01-28T16:22:16.100Z,66.15
2019-01-28T16:24:49.417Z,66.32
2019-01-28T16:27:22.974Z,66.33
2019-01-28T16:29:56.296Z,66.48
2019-01-28T16:32:29.746Z,66.52
2019-01-28T16:35:03.081Z,66.80
2019-01-28T16:37:36.570Z,66.71
2019-01-28T16:40:13.112Z,66.84
2019-01-28T16:42:46.726Z,66.77
2019-01-28T16:45:20.179Z,66.74
2019-01-28T16:47:53.629Z,66.69
2019-01-28T16:50:31.672Z,66.87
2019-01-28T16:53:05.562Z,66.92
2019-01-28T16:55:39.192Z,66.83
2019-01-28T16:58:12.712Z,66.75
2019-01-28T17:00:46.207Z,66.88
2019-01-28T17:03:19.677Z,67.05
2019-01-28T17:05:53.120Z,67.21
2019-01-28T17:08:26.609Z,67.00
2019-01-28T17:10:59.924Z,67.00
2019-01-28T17:13:33.338Z,67.09
2019-01-28T17:16:06.720Z,66.95
2019-01-28T17:18:40.085Z,67.04
2019-01-28T17:21:13.408Z,67.01
2019-01-28T17:23:46.789Z,67.11
2019-01-28T17:26:20.220Z,67.11
2019-01-28T17:28:53.595Z,66.95
2019-01-28T17:31:29.855Z,66.82
2019-01-28T17:34:04.357Z,66.82
2019-01-28T17:36:37.761Z,66.95
2019-01-28T17:39:11.165Z,67.11
2019-01-28T17:41:44.529Z,67.09
2019-01-28T17:44:17.912Z,67.03
2019-01-28T17:46:54.403Z,67.22
2019-01-28T17:49:27.821Z,67.11
2019-01-28T17:55:04.306Z,67.41
2019-01-28T17:57:37.925Z,67.36
2019-01-28T18:00:37.484Z,67.14
2019-01-28T18:03:15.477Z,67.14
2019-01-28T18:05:49.368Z,66.79
2019-01-28T18:08:26.579Z,66.86
2019-01-28T18:11:00.459Z,66.86
2019-01-28T18:13:33.999Z,67.09
2019-01-28T18:16:07.837Z,67.03
2019-01-28T18:18:41.187Z,67.24
2019-01-28T18:24:13.247Z,67.22
2019-01-28T18:26:55.942Z,67.19
2019-01-28T18:29:33.625Z,67.83
2019-01-28T18:32:08.773Z,67.61
2019-01-28T18:34:45.615Z,67.49
2019-01-28T18:37:22.246Z,67.39
2019-01-28T18:39:57.455Z,67.53
2019-01-28T18:42:31.359Z,67.37
2019-01-28T18:45:18.194Z,67.27
2019-01-28T18:47:48.532Z,67.39
2019-01-28T18:50:30.257Z,66.70
2019-01-28T18:53:08.128Z,67.37
2019-01-28T18:55:47.758Z,67.07
2019-01-28T18:58:29.120Z,66.96
2019-01-28T19:01:05.377Z,66.67
2019-01-28T19:03:43.257Z,66.83
2019-01-28T19:06:21.160Z,67.01
2019-01-28T19:08:58.934Z,66.92
2019-01-28T19:11:36.934Z,66.21
2019-01-28T19:14:20.876Z,66.60
2019-01-28T19:17:08.612Z,66.84
2019-01-28T19:19:54.877Z,66.69
2019-01-28T19:22:35.951Z,66.64
2019-01-28T19:25:12.589Z,66.61
2019-01-28T19:27:45.952Z,66.85
2019-01-28T19:30:21.606Z,66.80
2019-01-28T19:32:58.269Z,66.79
2019-01-28T19:35:31.739Z,66.37
2019-01-28T19:38:05.340Z,67.01
2019-01-28T19:43:35.317Z,67.08
2019-01-28T19:46:08.752Z,66.97
2019-01-28T19:48:42.204Z,66.98
2019-01-28T19:51:16.095Z,67.24
2019-01-28T19:53:49.581Z,67.20
2019-01-28T19:56:26.008Z,67.37
2019-01-28T19:59:04.172Z,67.06
2019-01-28T20:01:37.261Z,67.05
2019-01-28T20:04:13.548Z,66.91
2019-01-28T20:06:46.856Z,67.25
2019-01-28T20:09:20.336Z,67.13
2019-01-28T20:11:53.917Z,66.82
2019-01-28T20:14:27.251Z,66.99
2019-01-28T20:17:00.581Z,66.90
2019-01-28T20:19:33.988Z,67.12
2019-01-28T20:24:46.158Z,67.23
2019-01-28T20:27:22.355Z,67.14
2019-01-28T20:30:01.754Z,67.09
2019-01-28T20:32:35.073Z,66.93
2019-01-28T20:35:13.484Z,66.93
2019-01-28T20:37:46.866Z,66.94
2019-01-28T20:40:20.460Z,67.16
2019-01-28T20:42:59.481Z,66.82
2019-01-28T20:45:32.912Z,67.16
2019-01-28T20:48:09.472Z,66.42
2019-01-28T20:50:42.892Z,67.27
2019-01-28T20:53:16.230Z,66.07
2019-01-28T20:55:49.648Z,67.11
2019-01-28T20:58:23.079Z,66.97
2019-01-28T21:00:56.711Z,67.08
2019-01-28T21:03:30.162Z,67.20
2019-01-28T21:06:03.618Z,66.95
2019-01-28T21:08:37.075Z,67.09
2019-01-28T21:11:10.504Z,67.02
2019-01-28T21:13:43.880Z,66.64
2019-01-28T21:16:17.299Z,67.30
2019-01-28T21:18:50.614Z,66.73
2019-01-28T21:21:24.032Z,67.17
2019-01-28T21:23:57.422Z,66.98
2019-01-28T21:26:30.768Z,67.17
2019-01-28T21:29:06.980Z,66.86
2019-01-28T21:31:42.395Z,66.68
2019-01-28T21:34:15.903Z,66.92
2019-01-28T21:36:52.204Z,66.46
2019-01-28T21:39:25.707Z,66.43
2019-01-28T21:41:59.128Z,66.60
2019-01-28T21:44:32.599Z,66.25
2019-01-28T21:47:13.230Z,66.29
2019-01-28T21:49:49.360Z,66.40
2019-01-28T21:52:22.724Z,66.27
2019-01-28T21:55:02.648Z,65.97
2019-01-28T21:57:38.786Z,65.62
2019-01-28T22:02:49.138Z,65.37
2019-01-28T22:05:25.415Z,65.03
2019-01-28T22:08:00.232Z,66.00
2019-01-28T22:10:38.324Z,66.02
2019-01-28T22:13:11.733Z,66.09
2019-01-28T22:15:45.097Z,65.98
2019-01-28T22:18:18.496Z,65.89
2019-01-28T22:20:51.873Z,65.92
2019-01-28T22:23:25.185Z,66.05
2019-01-28T22:26:05.421Z,66.20
2019-01-28T22:28:40.185Z,66.17
2019-01-28T22:31:16.290Z,66.07
2019-01-28T22:33:53.416Z,66.05
2019-01-28T22:36:26.299Z,66.02
2019-01-28T22:39:06.175Z,66.12
2019-01-28T22:41:36.301Z,66.22
2019-01-28T22:44:09.620Z,66.04
2019-01-28T22:46:47.721Z,66.17
2019-01-28T22:49:21.043Z,66.12
2019-01-28T22:51:54.389Z,65.95
2019-01-28T22:54:27.809Z,66.05
2019-01-28T22:57:01.142Z,66.05
2019-01-28T22:59:36.078Z,65.91
2019-01-28T23:02:10.779Z,66.11
2019-01-28T23:04:45.747Z,66.11
2019-01-28T23:07:22.784Z,66.17
2019-01-28T23:09:56.182Z,65.98
2019-01-28T23:12:29.558Z,66.10
2019-01-28T23:15:03.013Z,66.13
2019-01-28T23:17:36.357Z,66.08
2019-01-28T23:20:09.823Z,66.02
2019-01-28T23:22:43.191Z,66.01
2019-01-28T23:25:17.002Z,66.13
2019-01-28T23:27:50.906Z,66.13
2019-01-28T23:30:24.322Z,65.96
2019-01-28T23:33:00.924Z,65.93
2019-01-28T23:35:34.245Z,66.07
2019-01-28T23:38:10.146Z,66.01
2019-01-28T23:40:45.192Z,65.88
2019-01-28T23:43:23.796Z,65.93
2019-01-28T23:45:57.261Z,66.29
2019-01-28T23:48:30.699Z,66.19
2019-01-28T23:51:05.788Z,65.99
2019-01-28T23:53:40.696Z,66.02
2019-01-28T23:56:14.058Z,65.96
2019-01-28T23:58:48.484Z,66.05
